SBKPSBFN

Guest
Details From SBKP - Sao Paulo Viracopos
To SBFN - Fernando De Noronha
Flight Number -
Tags Generated
Created
Modified
Stats Distance 1,433 nm / 2,654 km
Max Altitude 0 ft / 0 m
Waypoints 5
Social Downloads 0
Likes 0
Share VATSIM

Download

Looking for another format? Having issues loading an existing format? Contact us
Advertisement - Login to hide

Notes

Generated

Route

SBKP VISTA JPS NOR SBFN

ID Type Via Altitude Latitude Longitude Leg Dist Tot Dist Heading (true) Name
O SBKP APT - 0 ft / 0 m -22.99843˚ -47.14702˚ - 0 nm - -
VISTA FIX - 0 ft / 0 m -19.56200˚ -44.31400˚ 260 nm 260 nm 38° / 37° -
JPS NDB - 0 ft / 0 m -7.14050˚ -34.95250˚ 924 nm 1184 nm 37° / 35° JOAO PESSOA NDB
NOR NDB - 0 ft / 0 m -3.85839˚ -32.42824˚ 248 nm 1432 nm 38° / 37° NORONHA NDB
O SBFN APT - 0 ft / 0 m -3.85435˚ -32.43165˚ 0 nm 1433 nm 320° / 320° -

Altitude Profile

Advertisement - Login to hide

Weather


0- 5 10 15 20 25 30 35+ Temperature / ° C

Clouds and Precipitation
Forecast for 2017-12-12 00:00 UTC. Updated 2 hours ago

Ground ~20,000 ft ~40,000 ft Winds

SBKP

Details ICAO SBKP (VCP)
Name Sao Paulo Viracopos
Region Brazil
Timezone America/Sao_Paulo (UTC-2.0)
Stats Elevation 2,170 ft / 661 m (AMSL)
Location -23.007383° -47.134522°
Runways 1
Magnetic Variation 21.194° W

METAR

SBKP 112300Z 14018KT CAVOK 23/17 Q1011

Decode

TAF

TAF SBKP 101600Z 1118/1218 22007KT 9999 SCT045TX30/1119Z TN17/1208Z PROB30 1120/1124 17015G30KT 6000 TSRA SCT040 FEW050CB BECMG 1200/1202 15017KT CAVOK BECMG 1204/1206 14012KT PROB30 1209/1212 BKN025 BECMG 1212/1214 14015KT 9999 BKN033 PROB30 1216/1218 BKN025 RMK PGE

Decode

Departure Runways

ID Width Length Bearing (true) Bearing (mag) Surface Threshold Offset Overrun Length
15 148 ft / 45 m 10,639 ft / 3,243 m 127.91° 149.10° Asphalt 0 ft / 0 m 205 ft / 62 m
33 148 ft / 45 m 10,639 ft / 3,243 m 307.90° 329.09° Asphalt 0 ft / 0 m 205 ft / 62 m

SBFN

Details ICAO SBFN (FEN)
Name Fernando De Noronha
Region Brazil
Timezone America/Noronha (UTC-2.0)
Stats Elevation 180 ft / 55 m (AMSL)
Location -3.854928° -32.423335°
Runways 1
Magnetic Variation 20.050° W

METAR

SBFN 112200Z 10009KT 9999 SCT015 26/23 Q1012

Decode

TAF

TAF SBFN 111600Z 1118/1206 10012KT 9999 SCT017 TX28/1118Z TN26/1122Z RMK PCH

Decode

Destination Runways

ID Width Length Bearing (true) Bearing (mag) Surface Threshold Offset Overrun Length
12 148 ft / 45 m 6,070 ft / 1,850 m 93.99° 114.04° Asphalt 0 ft / 0 m 0 ft / 0 m
30 148 ft / 45 m 6,070 ft / 1,850 m 273.98° 294.03° Asphalt 0 ft / 0 m 0 ft / 0 m